Lambari, Brazil
Current Conditions -  °F | °C
As of 8:00 AM on Monday 26 Jan 2015 (Local Time) from SBGW Reporting Station
Broken Clouds Broken Clouds  
Wind Chill: 70°   Ceiling: 9000
Heat Index: 70°   Visibility: 6mi
Dew Point: 66°   Wind: 0mph
Humidity: 88%   Direction: NA
Pressure: 30"   Gusts: NA
Location:  21.98°S, 45.35°W
Report Text: SBGW 261000Z 00000KT 9999 FEW010 BKN090 21/19 Q1016
Loading
Personal Weather Stations






























Interactive Weather Map New forecast layout! Learn more

10-Day Weather Forecast

Advertisements
Track Severe Weather on mobile